createdAt,value
2017-08-07T00:01:56.230Z,4.47
2017-08-07T00:04:24.055Z,4.90
2017-08-07T00:06:52.694Z,4.90
2017-08-07T00:09:20.519Z,4.85
2017-08-07T00:11:48.350Z,4.78
2017-08-07T00:14:16.207Z,4.62
2017-08-07T00:16:44.039Z,4.55
2017-08-07T00:19:11.917Z,4.10
2017-08-07T00:21:39.743Z,4.68
2017-08-07T00:24:07.553Z,4.75
2017-08-07T00:26:35.392Z,4.47
2017-08-07T00:29:03.193Z,4.47
2017-08-07T00:31:31.069Z,4.70
2017-08-07T00:33:59.647Z,4.32
2017-08-07T00:36:27.503Z,4.60
2017-08-07T00:38:55.345Z,5.30
2017-08-07T00:41:23.220Z,5.00
2017-08-07T00:43:51.095Z,4.55
2017-08-07T00:46:18.911Z,4.40
2017-08-07T00:48:46.752Z,4.12
2017-08-07T00:51:14.616Z,4.80
2017-08-07T00:53:42.451Z,4.85
2017-08-07T00:56:10.341Z,5.10
2017-08-07T00:58:38.167Z,5.35
2017-08-07T01:01:06.042Z,5.95
2017-08-07T01:03:33.898Z,5.05
2017-08-07T01:06:02.499Z,5.05
2017-08-07T01:08:31.131Z,5.05
2017-08-07T01:10:58.941Z,5.95
2017-08-07T01:13:27.527Z,4.87
2017-08-07T01:15:55.376Z,5.20
2017-08-07T01:18:23.260Z,6.47
2017-08-07T01:20:51.131Z,5.12
2017-08-07T01:23:18.939Z,5.90
2017-08-07T01:25:46.752Z,6.55
2017-08-07T01:28:15.343Z,7.40
2017-08-07T01:30:43.159Z,7.53
2017-08-07T01:33:11.031Z,6.60
2017-08-07T01:35:38.852Z,5.60
2017-08-07T01:38:06.656Z,6.87
2017-08-07T01:40:34.543Z,6.25
2017-08-07T01:43:03.137Z,6.72
2017-08-07T01:45:31.015Z,6.65
2017-08-07T01:47:58.859Z,5.53
2017-08-07T01:50:26.767Z,6.70
2017-08-07T01:52:54.627Z,6.95
2017-08-07T01:55:22.438Z,8.55
2017-08-07T01:57:51.148Z,7.93
2017-08-07T02:00:19.053Z,7.10
2017-08-07T02:02:46.873Z,8.10
2017-08-07T02:05:14.715Z,8.25
2017-08-07T02:07:43.300Z,9.70
2017-08-07T02:10:11.939Z,10.10
2017-08-07T02:12:39.758Z,7.70
2017-08-07T02:15:07.583Z,7.78
2017-08-07T02:17:35.438Z,9.65
2017-08-07T02:20:03.312Z,8.65
2017-08-07T02:22:31.172Z,8.68
2017-08-07T02:24:58.983Z,10.43
2017-08-07T02:27:26.814Z,9.45
2017-08-07T02:29:55.415Z,10.88
2017-08-07T02:32:23.244Z,8.18
2017-08-07T02:34:51.112Z,7.87
2017-08-07T02:37:18.930Z,8.85
2017-08-07T02:39:46.737Z,9.13
2017-08-07T02:42:14.592Z,7.90
2017-08-07T02:44:42.404Z,7.78
2017-08-07T02:47:10.282Z,7.62
2017-08-07T02:49:38.100Z,8.38
2017-08-07T02:52:06.681Z,7.82
2017-08-07T02:54:35.289Z,8.90
2017-08-07T02:57:03.119Z,8.25
2017-08-07T02:59:30.996Z,7.62
2017-08-07T03:01:59.588Z,7.68
2017-08-07T03:04:28.152Z,7.90
2017-08-07T03:06:56.770Z,7.45
2017-08-07T03:09:24.598Z,8.02
2017-08-07T03:11:53.251Z,8.30
2017-08-07T03:14:21.059Z,8.45
2017-08-07T03:16:48.868Z,7.90
2017-08-07T03:19:16.711Z,8.30
2017-08-07T03:21:44.515Z,8.35
2017-08-07T03:24:12.387Z,8.80
2017-08-07T03:26:40.219Z,7.62
2017-08-07T03:29:08.029Z,9.27
2017-08-07T03:31:36.644Z,8.75
2017-08-07T03:34:04.465Z,8.27
2017-08-07T03:36:33.116Z,7.22
2017-08-07T03:39:00.928Z,8.63
2017-08-07T03:41:28.746Z,9.35
2017-08-07T03:43:56.589Z,9.85
2017-08-07T03:46:24.405Z,9.10
2017-08-07T03:48:53.039Z,9.65
2017-08-07T03:51:20.867Z,8.80
2017-08-07T03:53:48.680Z,9.32
2017-08-07T03:56:16.540Z,8.38
2017-08-07T03:58:44.379Z,8.85
2017-08-07T04:01:12.260Z,7.37
2017-08-07T04:03:40.070Z,7.68
2017-08-07T04:06:08.693Z,8.63
2017-08-07T04:08:36.543Z,8.70
2017-08-07T04:11:04.371Z,9.20
2017-08-07T04:13:33.060Z,9.75
2017-08-07T04:16:00.900Z,7.05
2017-08-07T04:18:29.533Z,8.90
2017-08-07T04:20:57.375Z,8.30
2017-08-07T04:23:25.950Z,7.28
2017-08-07T04:25:54.617Z,7.03
2017-08-07T04:28:22.434Z,8.05
2017-08-07T04:30:50.243Z,8.23
2017-08-07T04:33:18.095Z,7.78
2017-08-07T04:35:45.903Z,7.47
2017-08-07T04:38:13.792Z,7.85
2017-08-07T04:40:41.614Z,7.43
2017-08-07T04:43:10.195Z,7.60
2017-08-07T04:45:38.859Z,7.70
2017-08-07T04:48:06.675Z,6.37
2017-08-07T04:50:34.555Z,8.02
2017-08-07T04:53:02.361Z,9.15
2017-08-07T04:55:30.936Z,7.80
2017-08-07T04:57:59.555Z,9.65
2017-08-07T05:00:27.384Z,8.00
2017-08-07T05:02:55.557Z,9.05
2017-08-07T05:05:24.128Z,8.25
2017-08-07T05:07:52.715Z,7.93
2017-08-07T05:10:21.377Z,8.68
2017-08-07T05:12:49.191Z,8.00
2017-08-07T05:15:17.085Z,6.72
2017-08-07T05:17:44.914Z,7.00
2017-08-07T05:20:12.756Z,9.02
2017-08-07T05:22:41.419Z,6.25
2017-08-07T05:25:09.250Z,7.00
2017-08-07T05:27:37.153Z,5.47
2017-08-07T05:30:04.984Z,5.95
2017-08-07T05:32:32.815Z,5.78
2017-08-07T05:35:00.676Z,5.12
2017-08-07T05:37:28.522Z,5.95
2017-08-07T05:39:57.191Z,5.82
2017-08-07T05:42:25.770Z,6.53
2017-08-07T05:44:54.381Z,6.00
2017-08-07T05:47:22.232Z,6.32
2017-08-07T05:49:50.827Z,5.85
2017-08-07T05:52:18.748Z,7.07
2017-08-07T05:54:46.575Z,6.45
2017-08-07T05:57:14.433Z,6.00
2017-08-07T05:59:42.292Z,6.28
2017-08-07T06:02:10.165Z,6.25
2017-08-07T06:04:38.175Z,5.70
2017-08-07T06:07:06.816Z,5.50
2017-08-07T06:09:34.678Z,6.43
2017-08-07T06:12:02.556Z,5.63
2017-08-07T06:14:30.396Z,5.20
2017-08-07T06:16:58.289Z,5.73
2017-08-07T06:19:26.109Z,5.77
2017-08-07T06:21:53.937Z,3.00
2017-08-07T06:24:22.560Z,2.43
2017-08-07T06:26:50.404Z,1.70
2017-08-07T06:29:19.057Z,1.53
2017-08-07T06:31:46.881Z,1.93
2017-08-07T06:34:14.700Z,2.40
2017-08-07T06:36:42.579Z,1.73
2017-08-07T06:39:11.152Z,2.00
2017-08-07T06:41:39.784Z,2.43
2017-08-07T06:44:07.607Z,2.67
2017-08-07T06:46:35.492Z,2.07
2017-08-07T06:49:03.328Z,1.40
2017-08-07T06:51:31.190Z,1.20
2017-08-07T06:53:59.056Z,2.20
2017-08-07T06:56:26.896Z,1.73
2017-08-07T06:58:54.785Z,2.50
2017-08-07T07:01:22.601Z,1.40
2017-08-07T07:03:50.453Z,0.87
2017-08-07T07:06:18.419Z,1.90
2017-08-07T07:08:46.268Z,1.27
2017-08-07T07:11:14.173Z,2.10
2017-08-07T07:13:41.995Z,1.40
2017-08-07T07:16:09.816Z,1.47
2017-08-07T07:18:37.696Z,1.33
2017-08-07T07:21:06.298Z,1.07
2017-08-07T07:23:34.200Z,1.10
2017-08-07T07:26:02.034Z,1.10
2017-08-07T07:28:29.860Z,1.50
2017-08-07T07:30:58.500Z,1.67
2017-08-07T07:33:26.401Z,1.53
2017-08-07T07:35:55.021Z,1.57
2017-08-07T07:38:22.855Z,1.13
2017-08-07T07:40:50.733Z,0.90
2017-08-07T07:43:18.619Z,0.70
2017-08-07T07:45:46.464Z,4.50
2017-08-07T07:48:14.384Z,1.70
2017-08-07T07:50:42.242Z,1.13
2017-08-07T07:53:10.103Z,1.20
2017-08-07T07:55:37.955Z,1.00
2017-08-07T07:58:05.789Z,1.47
2017-08-07T08:00:33.693Z,0.97
2017-08-07T08:03:01.537Z,1.40
2017-08-07T08:05:29.417Z,1.20
2017-08-07T08:07:57.261Z,1.30
2017-08-07T08:10:25.103Z,1.47
2017-08-07T08:12:53.008Z,1.27
2017-08-07T08:15:20.847Z,0.70
2017-08-07T08:17:48.664Z,1.13
2017-08-07T08:20:16.512Z,0.90
2017-08-07T08:22:44.346Z,1.20
2017-08-07T08:25:12.219Z,1.20
2017-08-07T08:27:40.036Z,0.90
2017-08-07T08:30:07.904Z,0.90
2017-08-07T08:32:35.915Z,1.30
2017-08-07T08:35:05.382Z,1.03
2017-08-07T08:37:33.424Z,1.10
2017-08-07T08:40:02.113Z,1.58
2017-08-07T08:42:29.991Z,2.25
2017-08-07T08:44:57.848Z,1.50
2017-08-07T08:47:25.708Z,1.40
2017-08-07T08:49:53.699Z,1.33
2017-08-07T08:52:21.540Z,1.20
2017-08-07T08:54:49.452Z,1.45
2017-08-07T08:57:17.344Z,1.50
2017-08-07T08:59:45.970Z,1.20
2017-08-07T09:02:13.878Z,1.62
2017-08-07T09:04:41.735Z,2.42
2017-08-07T09:07:09.597Z,1.55
2017-08-07T09:09:37.462Z,1.65
2017-08-07T09:12:05.302Z,1.67
2017-08-07T09:14:33.207Z,1.00
2017-08-07T09:17:01.043Z,1.40
2017-08-07T09:19:28.868Z,1.13
2017-08-07T09:21:56.730Z,1.40
2017-08-07T09:24:24.579Z,1.30
2017-08-07T09:26:53.269Z,1.10
2017-08-07T09:29:21.129Z,1.37
2017-08-07T09:31:48.960Z,1.30
2017-08-07T09:34:16.868Z,1.50
2017-08-07T09:36:44.695Z,1.37
2017-08-07T09:39:13.372Z,1.42
2017-08-07T09:41:41.986Z,1.35
2017-08-07T09:44:09.895Z,1.40
2017-08-07T09:46:37.744Z,1.17
2017-08-07T09:49:05.581Z,1.45
2017-08-07T09:51:33.480Z,1.25
2017-08-07T09:54:01.310Z,1.00
2017-08-07T09:56:29.160Z,1.77
2017-08-07T09:58:57.839Z,1.23
2017-08-07T10:01:26.442Z,1.90
2017-08-07T10:03:54.351Z,1.40
2017-08-07T10:06:22.192Z,1.40
2017-08-07T10:08:50.012Z,1.05
2017-08-07T10:11:18.660Z,1.50
2017-08-07T10:13:46.505Z,1.50
2017-08-07T10:16:14.401Z,1.27
2017-08-07T10:18:42.228Z,1.20
2017-08-07T10:21:10.071Z,0.80
2017-08-07T10:23:37.928Z,1.25
2017-08-07T10:26:05.785Z,1.40
2017-08-07T10:28:34.447Z,1.15
2017-08-07T10:31:02.382Z,1.05
2017-08-07T10:33:30.266Z,1.05
2017-08-07T10:35:58.139Z,1.48
2017-08-07T10:38:25.970Z,1.08
2017-08-07T10:40:53.860Z,1.58
2017-08-07T10:43:21.692Z,0.98
2017-08-07T10:45:49.532Z,1.20
2017-08-07T10:48:17.413Z,1.10
2017-08-07T10:50:45.247Z,1.25
2017-08-07T10:53:13.125Z,1.35
2017-08-07T10:55:40.990Z,1.30
2017-08-07T10:58:08.794Z,0.95
2017-08-07T11:00:36.672Z,1.45
2017-08-07T11:03:04.509Z,1.45
2017-08-07T11:05:32.403Z,1.20
2017-08-07T11:08:00.251Z,1.20
2017-08-07T11:10:28.086Z,1.20
2017-08-07T11:12:55.952Z,1.50
2017-08-07T11:15:23.793Z,0.95
2017-08-07T11:17:51.716Z,1.10
2017-08-07T11:20:19.571Z,1.58
2017-08-07T11:22:47.416Z,1.20
2017-08-07T11:25:15.296Z,1.77
2017-08-07T11:27:43.146Z,1.20
2017-08-07T11:30:11.046Z,1.52
2017-08-07T11:32:39.663Z,1.80
2017-08-07T11:35:07.491Z,1.85
2017-08-07T11:37:36.130Z,1.33
2017-08-07T11:40:04.005Z,1.58
2017-08-07T11:42:31.897Z,1.20
2017-08-07T11:44:59.730Z,1.48
2017-08-07T11:47:27.575Z,2.00
2017-08-07T11:49:55.436Z,1.75
2017-08-07T11:52:23.275Z,1.45
2017-08-07T11:54:51.176Z,1.70
2017-08-07T11:57:19.071Z,1.55
2017-08-07T11:59:46.926Z,1.60
2017-08-07T12:02:14.794Z,1.55
2017-08-07T12:04:42.637Z,1.60
2017-08-07T12:07:10.528Z,1.98
2017-08-07T12:09:38.351Z,1.80
2017-08-07T12:12:06.215Z,1.95
2017-08-07T12:14:34.092Z,1.80
2017-08-07T12:17:01.918Z,1.33
2017-08-07T12:19:29.811Z,1.77
2017-08-07T12:21:57.642Z,1.50
2017-08-07T12:24:25.485Z,1.58
2017-08-07T12:26:54.127Z,1.35
2017-08-07T12:29:21.969Z,1.83
2017-08-07T12:31:49.856Z,1.50
2017-08-07T12:34:17.709Z,1.42
2017-08-07T12:36:45.555Z,1.40
2017-08-07T12:39:13.416Z,1.75
2017-08-07T12:41:41.264Z,1.30
2017-08-07T12:44:09.921Z,1.67
2017-08-07T12:46:37.766Z,1.70
2017-08-07T12:49:05.582Z,1.92
2017-08-07T12:51:33.455Z,1.60
2017-08-07T12:54:01.271Z,1.00
2017-08-07T12:56:29.143Z,1.45
2017-08-07T12:58:56.997Z,1.50
2017-08-07T13:01:24.837Z,1.70
2017-08-07T13:03:52.703Z,1.40
2017-08-07T13:06:20.519Z,1.23
2017-08-07T13:08:48.429Z,1.45
2017-08-07T13:11:16.265Z,1.75
2017-08-07T13:13:44.085Z,1.48
2017-08-07T13:16:12.055Z,1.55
2017-08-07T13:18:40.668Z,1.30
2017-08-07T13:21:08.560Z,1.40
2017-08-07T13:23:36.388Z,2.10
2017-08-07T13:26:04.225Z,1.58
2017-08-07T13:28:32.119Z,1.37
2017-08-07T13:30:59.964Z,1.33
2017-08-07T13:33:28.640Z,1.60
2017-08-07T13:35:57.262Z,1.80
2017-08-07T13:38:25.117Z,1.48
2017-08-07T13:40:53.015Z,1.67
2017-08-07T13:43:20.852Z,1.40
2017-08-07T13:45:48.756Z,2.05
2017-08-07T13:48:16.588Z,1.42
2017-08-07T13:50:44.445Z,1.50
2017-08-07T13:53:12.374Z,2.03
2017-08-07T13:55:41.037Z,1.83
2017-08-07T13:58:08.956Z,2.10
2017-08-07T14:00:36.795Z,2.28
2017-08-07T14:03:05.410Z,2.00
2017-08-07T14:05:33.282Z,2.28
2017-08-07T14:08:01.100Z,1.92
2017-08-07T14:10:29.014Z,1.67
2017-08-07T14:12:56.886Z,1.70
2017-08-07T14:15:24.756Z,2.33
2017-08-07T14:17:52.632Z,2.20
2017-08-07T14:20:20.459Z,2.05
2017-08-07T14:22:48.360Z,1.75
2017-08-07T14:25:16.260Z,1.92
2017-08-07T14:27:44.131Z,1.95
2017-08-07T14:30:11.997Z,2.40
2017-08-07T14:32:39.861Z,1.90
2017-08-07T14:35:07.769Z,1.65
2017-08-07T14:37:35.605Z,2.33
2017-08-07T14:40:03.470Z,2.00
2017-08-07T14:42:31.331Z,2.05
2017-08-07T14:44:59.191Z,1.65
2017-08-07T14:47:27.101Z,2.95
2017-08-07T14:49:54.937Z,2.28
2017-08-07T14:52:22.808Z,2.50
2017-08-07T14:54:50.694Z,1.98
2017-08-07T14:57:18.547Z,2.70
2017-08-07T14:59:46.451Z,1.90
2017-08-07T15:02:14.294Z,2.15
2017-08-07T15:04:42.925Z,2.00
2017-08-07T15:07:10.798Z,1.80
2017-08-07T15:09:38.638Z,1.85
2017-08-07T15:12:06.587Z,1.30
2017-08-07T15:14:35.180Z,1.92
2017-08-07T15:17:03.020Z,1.60
2017-08-07T15:19:30.908Z,1.67
2017-08-07T15:21:58.779Z,2.00
2017-08-07T15:24:26.694Z,1.75
2017-08-07T15:26:54.510Z,1.90
2017-08-07T15:29:22.364Z,1.90
2017-08-07T15:31:50.247Z,1.62
2017-08-07T15:34:18.083Z,1.50
2017-08-07T15:36:45.944Z,1.70
2017-08-07T15:39:14.616Z,2.00
2017-08-07T15:41:42.565Z,1.30
2017-08-07T15:44:10.431Z,1.42
2017-08-07T15:46:39.078Z,1.80
2017-08-07T15:49:06.936Z,1.40
2017-08-07T15:51:34.781Z,1.80
2017-08-07T15:54:02.713Z,1.40
2017-08-07T15:56:30.574Z,1.58
2017-08-07T15:58:58.405Z,1.70
2017-08-07T16:01:26.295Z,1.60
2017-08-07T16:03:54.142Z,1.80
2017-08-07T16:06:22.034Z,1.55
2017-08-07T16:08:50.636Z,2.10
2017-08-07T16:11:18.474Z,1.60
2017-08-07T16:13:47.106Z,1.50
2017-08-07T16:16:14.946Z,1.80
2017-08-07T16:18:42.819Z,1.80
2017-08-07T16:21:10.644Z,2.20
2017-08-07T16:23:39.249Z,1.70
2017-08-07T16:26:07.146Z,2.10
2017-08-07T16:28:34.985Z,2.80
2017-08-07T16:31:02.885Z,1.80
2017-08-07T16:33:30.719Z,1.90
2017-08-07T16:35:58.596Z,1.70
2017-08-07T16:38:26.485Z,1.80
2017-08-07T16:40:54.345Z,1.98
2017-08-07T16:43:22.229Z,1.90
2017-08-07T16:45:50.851Z,1.90
2017-08-07T16:48:18.706Z,1.30
2017-08-07T16:50:46.600Z,1.80
2017-08-07T16:53:14.429Z,1.48
2017-08-07T16:55:43.115Z,1.80
2017-08-07T16:58:10.979Z,2.05
2017-08-07T17:00:38.840Z,2.15
2017-08-07T17:03:07.480Z,1.83
2017-08-07T17:05:35.317Z,1.77
2017-08-07T17:08:03.211Z,2.00
2017-08-07T17:10:31.043Z,1.60
2017-08-07T17:12:58.885Z,1.70
2017-08-07T17:15:26.807Z,1.50
2017-08-07T17:17:54.616Z,1.70
2017-08-07T17:20:22.541Z,1.83
2017-08-07T17:22:50.376Z,1.58
2017-08-07T17:25:18.290Z,2.05
2017-08-07T17:27:46.941Z,2.20
2017-08-07T17:30:14.806Z,1.85
2017-08-07T17:32:42.705Z,2.53
2017-08-07T17:35:10.539Z,1.95
2017-08-07T17:37:38.405Z,1.90
2017-08-07T17:40:06.282Z,1.80
2017-08-07T17:42:34.110Z,2.47
2017-08-07T17:45:02.028Z,1.60
2017-08-07T17:47:30.735Z,1.92
2017-08-07T17:49:58.590Z,1.60
2017-08-07T17:52:26.440Z,1.40
2017-08-07T17:54:55.037Z,1.90
2017-08-07T17:57:22.925Z,1.90
2017-08-07T17:59:50.839Z,1.65
2017-08-07T18:02:19.428Z,1.50
2017-08-07T18:04:47.550Z,2.47
2017-08-07T18:07:15.373Z,2.33
2017-08-07T18:09:43.241Z,1.77
2017-08-07T18:12:11.041Z,2.35
2017-08-07T18:14:38.852Z,2.20
2017-08-07T18:17:07.463Z,2.65
2017-08-07T18:19:35.274Z,2.22
2017-08-07T18:22:03.136Z,2.22
2017-08-07T18:24:30.975Z,2.42
2017-08-07T18:26:58.784Z,2.53
2017-08-07T18:29:27.408Z,2.10
2017-08-07T18:31:55.224Z,2.53
2017-08-07T18:34:23.866Z,2.75
2017-08-07T18:36:51.683Z,2.80
2017-08-07T18:39:19.496Z,2.20
2017-08-07T18:41:48.280Z,2.70
2017-08-07T18:44:16.091Z,2.65
2017-08-07T18:46:43.963Z,2.20
2017-08-07T18:49:11.763Z,2.45
2017-08-07T18:51:39.579Z,2.67
2017-08-07T18:54:08.227Z,2.45
2017-08-07T18:56:36.114Z,2.72
2017-08-07T18:59:04.811Z,2.50
2017-08-07T19:01:32.668Z,2.70
2017-08-07T19:04:00.478Z,2.60
2017-08-07T19:06:28.316Z,2.78
2017-08-07T19:08:56.133Z,2.85
2017-08-07T19:11:23.988Z,2.90
2017-08-07T19:13:51.905Z,2.75
2017-08-07T19:16:21.567Z,3.50
2017-08-07T19:18:49.422Z,3.53
2017-08-07T19:21:17.228Z,4.05
2017-08-07T19:23:45.114Z,3.35
2017-08-07T19:26:12.931Z,3.70
2017-08-07T19:28:40.769Z,3.35
2017-08-07T19:31:08.609Z,3.85
2017-08-07T19:33:36.554Z,3.42
2017-08-07T19:36:04.480Z,3.60
2017-08-07T19:38:32.293Z,3.70
2017-08-07T19:41:00.221Z,3.28
2017-08-07T19:43:28.822Z,4.20
2017-08-07T19:45:56.636Z,3.05
2017-08-07T19:48:24.698Z,3.40
2017-08-07T19:50:52.524Z,2.70
2017-08-07T19:53:20.356Z,3.42
2017-08-07T19:55:48.964Z,3.37
2017-08-07T19:58:16.769Z,2.95
2017-08-07T20:00:44.647Z,3.40
2017-08-07T20:03:12.479Z,3.53
2017-08-07T20:05:40.342Z,3.60
2017-08-07T20:08:08.208Z,3.25
2017-08-07T20:10:36.037Z,3.53
2017-08-07T20:13:03.929Z,3.20
2017-08-07T20:15:31.760Z,4.05
2017-08-07T20:18:00.342Z,3.30
2017-08-07T20:20:28.981Z,3.60
2017-08-07T20:22:56.830Z,3.92
2017-08-07T20:25:24.702Z,3.17
2017-08-07T20:27:52.696Z,3.45
2017-08-07T20:30:21.624Z,3.30
2017-08-07T20:32:49.512Z,3.15
2017-08-07T20:35:17.320Z,3.60
2017-08-07T20:37:45.975Z,3.10
2017-08-07T20:40:13.780Z,3.83
2017-08-07T20:42:41.583Z,2.90
2017-08-07T20:45:09.408Z,3.62
2017-08-07T20:47:37.292Z,3.20
2017-08-07T20:50:05.151Z,3.90
2017-08-07T20:52:32.968Z,3.92
2017-08-07T20:55:00.792Z,3.45
2017-08-07T20:57:28.647Z,4.10
2017-08-07T20:59:56.521Z,3.12
2017-08-07T21:02:24.396Z,3.00
2017-08-07T21:04:52.258Z,3.35
2017-08-07T21:07:20.076Z,3.20
2017-08-07T21:09:48.716Z,3.80
2017-08-07T21:12:16.554Z,4.00
2017-08-07T21:14:44.436Z,4.10
2017-08-07T21:17:12.266Z,3.70
2017-08-07T21:19:40.099Z,4.15
2017-08-07T21:22:08.878Z,5.07
2017-08-07T21:24:36.697Z,5.00
2017-08-07T21:27:04.571Z,4.15
2017-08-07T21:29:32.376Z,4.53
2017-08-07T21:32:00.959Z,5.47
2017-08-07T21:34:29.572Z,5.35
2017-08-07T21:36:57.368Z,4.78
2017-08-07T21:39:25.264Z,4.82
2017-08-07T21:41:53.841Z,4.18
2017-08-07T21:44:22.418Z,5.50
2017-08-07T21:46:50.275Z,5.60
2017-08-07T21:49:18.678Z,4.93
2017-08-07T21:51:46.540Z,5.65
2017-08-07T21:54:15.104Z,5.45
2017-08-07T21:56:43.677Z,6.68
2017-08-07T21:59:11.504Z,5.40
2017-08-07T22:01:39.307Z,5.07
2017-08-07T22:04:07.169Z,5.70
2017-08-07T22:06:34.979Z,6.05
2017-08-07T22:09:02.786Z,6.05
2017-08-07T22:11:30.640Z,6.93
2017-08-07T22:13:58.433Z,6.25
2017-08-07T22:16:27.049Z,6.10
2017-08-07T22:18:54.852Z,6.82
2017-08-07T22:21:22.667Z,5.18
2017-08-07T22:23:50.501Z,5.65
2017-08-07T22:26:19.065Z,7.65
2017-08-07T22:28:46.957Z,5.25
2017-08-07T22:31:14.754Z,5.80
2017-08-07T22:33:42.556Z,6.80
2017-08-07T22:36:10.423Z,6.45
2017-08-07T22:38:38.211Z,6.90
2017-08-07T22:41:06.068Z,6.90
2017-08-07T22:43:34.631Z,6.37
2017-08-07T22:46:03.195Z,7.93
2017-08-07T22:48:31.028Z,7.45
2017-08-07T22:50:58.821Z,7.10
2017-08-07T22:53:26.692Z,7.82
2017-08-07T22:55:54.494Z,8.63
2017-08-07T22:58:22.295Z,8.23
2017-08-07T23:00:50.149Z,7.00
2017-08-07T23:03:17.959Z,8.40
2017-08-07T23:05:46.783Z,7.78
2017-08-07T23:08:14.590Z,8.02
2017-08-07T23:10:42.396Z,8.25
2017-08-07T23:13:10.235Z,7.87
2017-08-07T23:15:38.811Z,8.40
2017-08-07T23:18:06.669Z,9.00
2017-08-07T23:20:34.473Z,7.55
2017-08-07T23:23:02.271Z,7.90
2017-08-07T23:25:30.099Z,8.20
2017-08-07T23:27:57.887Z,7.37
2017-08-07T23:30:25.740Z,7.20
2017-08-07T23:32:53.539Z,8.65
2017-08-07T23:35:21.345Z,6.90
2017-08-07T23:37:49.233Z,7.32
2017-08-07T23:40:17.026Z,8.10
2017-08-07T23:42:44.878Z,8.02
2017-08-07T23:45:12.696Z,8.05
2017-08-07T23:47:40.502Z,8.52
2017-08-07T23:50:08.336Z,8.13
2017-08-07T23:52:36.135Z,7.85
2017-08-07T23:55:04.019Z,7.95
2017-08-07T23:57:31.851Z,8.63
2017-08-07T23:59:59.639Z,7.70
